sensor_id;sensor_type;location;lat;lon;timestamp;P1;durP1;ratioP1;P2;durP2;ratioP2
8887;SDS011;4480;52.370;9.748;2022-12-19T00:01:53;13.75;;;10.32;;
8887;SDS011;4480;52.370;9.748;2022-12-19T00:04:20;16.52;;;10.50;;
8887;SDS011;4480;52.370;9.748;2022-12-19T00:06:47;14.85;;;10.80;;
8887;SDS011;4480;52.370;9.748;2022-12-19T00:09:14;13.80;;;10.27;;
8887;SDS011;4480;52.370;9.748;2022-12-19T00:11:41;14.90;;;10.00;;
8887;SDS011;4480;52.370;9.748;2022-12-19T00:14:08;14.48;;;10.30;;
8887;SDS011;4480;52.370;9.748;2022-12-19T00:16:36;13.10;;;9.45;;
8887;SDS011;4480;52.370;9.748;2022-12-19T00:19:04;14.73;;;10.10;;
8887;SDS011;4480;52.370;9.748;2022-12-19T00:21:32;15.00;;;10.45;;
8887;SDS011;4480;52.370;9.748;2022-12-19T00:23:59;16.40;;;10.68;;
8887;SDS011;4480;52.370;9.748;2022-12-19T00:26:27;15.10;;;10.10;;
8887;SDS011;4480;52.370;9.748;2022-12-19T00:28:56;14.60;;;9.60;;
8887;SDS011;4480;52.370;9.748;2022-12-19T00:31:24;14.35;;;10.45;;
8887;SDS011;4480;52.370;9.748;2022-12-19T00:33:53;16.08;;;11.02;;
8887;SDS011;4480;52.370;9.748;2022-12-19T00:36:22;15.80;;;10.27;;
8887;SDS011;4480;52.370;9.748;2022-12-19T00:38:50;16.13;;;10.55;;
8887;SDS011;4480;52.370;9.748;2022-12-19T00:41:18;15.20;;;11.00;;
8887;SDS011;4480;52.370;9.748;2022-12-19T00:43:50;16.50;;;10.60;;
8887;SDS011;4480;52.370;9.748;2022-12-19T00:46:18;15.60;;;11.10;;
8887;SDS011;4480;52.370;9.748;2022-12-19T00:48:45;15.13;;;10.85;;
8887;SDS011;4480;52.370;9.748;2022-12-19T00:51:12;15.57;;;11.23;;
8887;SDS011;4480;52.370;9.748;2022-12-19T00:53:42;15.70;;;10.90;;
8887;SDS011;4480;52.370;9.748;2022-12-19T00:56:10;14.85;;;10.38;;
8887;SDS011;4480;52.370;9.748;2022-12-19T00:58:39;17.50;;;10.98;;
8887;SDS011;4480;52.370;9.748;2022-12-19T01:01:06;16.10;;;11.00;;
8887;SDS011;4480;52.370;9.748;2022-12-19T01:03:34;15.45;;;10.07;;
8887;SDS011;4480;52.370;9.748;2022-12-19T01:06:01;16.83;;;11.25;;
8887;SDS011;4480;52.370;9.748;2022-12-19T01:08:28;17.20;;;11.52;;
8887;SDS011;4480;52.370;9.748;2022-12-19T01:10:56;17.42;;;11.60;;
8887;SDS011;4480;52.370;9.748;2022-12-19T01:13:24;16.17;;;11.20;;
8887;SDS011;4480;52.370;9.748;2022-12-19T01:15:52;18.17;;;12.35;;
8887;SDS011;4480;52.370;9.748;2022-12-19T01:18:18;17.40;;;11.98;;
8887;SDS011;4480;52.370;9.748;2022-12-19T01:20:45;15.40;;;11.80;;
8887;SDS011;4480;52.370;9.748;2022-12-19T01:23:12;17.00;;;11.73;;
8887;SDS011;4480;52.370;9.748;2022-12-19T01:25:40;15.93;;;11.10;;
8887;SDS011;4480;52.370;9.748;2022-12-19T01:28:10;17.55;;;12.30;;
8887;SDS011;4480;52.370;9.748;2022-12-19T01:30:40;17.35;;;12.10;;
8887;SDS011;4480;52.370;9.748;2022-12-19T01:33:07;16.33;;;11.75;;
8887;SDS011;4480;52.370;9.748;2022-12-19T01:35:36;17.95;;;12.50;;
8887;SDS011;4480;52.370;9.748;2022-12-19T01:38:03;18.27;;;13.32;;
8887;SDS011;4480;52.370;9.748;2022-12-19T01:40:30;18.30;;;12.82;;
8887;SDS011;4480;52.370;9.748;2022-12-19T01:42:57;18.30;;;12.10;;
8887;SDS011;4480;52.370;9.748;2022-12-19T01:45:29;15.90;;;11.73;;
8887;SDS011;4480;52.370;9.748;2022-12-19T01:47:59;18.38;;;12.85;;
8887;SDS011;4480;52.370;9.748;2022-12-19T01:50:34;17.38;;;12.27;;
8887;SDS011;4480;52.370;9.748;2022-12-19T01:53:04;19.38;;;11.85;;
8887;SDS011;4480;52.370;9.748;2022-12-19T01:55:34;18.37;;;12.50;;
8887;SDS011;4480;52.370;9.748;2022-12-19T01:58:02;16.55;;;12.20;;
8887;SDS011;4480;52.370;9.748;2022-12-19T02:00:30;18.15;;;11.90;;
8887;SDS011;4480;52.370;9.748;2022-12-19T02:02:58;17.15;;;11.60;;
8887;SDS011;4480;52.370;9.748;2022-12-19T02:05:30;18.15;;;12.32;;
8887;SDS011;4480;52.370;9.748;2022-12-19T02:07:57;16.27;;;11.35;;
8887;SDS011;4480;52.370;9.748;2022-12-19T02:10:25;16.27;;;11.23;;
8887;SDS011;4480;52.370;9.748;2022-12-19T02:12:52;17.50;;;11.50;;
8887;SDS011;4480;52.370;9.748;2022-12-19T02:15:19;17.85;;;12.52;;
8887;SDS011;4480;52.370;9.748;2022-12-19T02:17:52;19.52;;;12.68;;
8887;SDS011;4480;52.370;9.748;2022-12-19T02:23:49;18.50;;;12.02;;
8887;SDS011;4480;52.370;9.748;2022-12-19T02:26:51;20.70;;;13.00;;
8887;SDS011;4480;52.370;9.748;2022-12-19T02:32:37;18.17;;;11.95;;
8887;SDS011;4480;52.370;9.748;2022-12-19T02:35:14;17.13;;;11.93;;
8887;SDS011;4480;52.370;9.748;2022-12-19T02:37:55;16.60;;;11.73;;
8887;SDS011;4480;52.370;9.748;2022-12-19T02:40:30;17.48;;;11.95;;
8887;SDS011;4480;52.370;9.748;2022-12-19T02:43:03;18.92;;;12.77;;
8887;SDS011;4480;52.370;9.748;2022-12-19T02:45:32;16.98;;;11.70;;
8887;SDS011;4480;52.370;9.748;2022-12-19T02:48:03;18.35;;;12.80;;
8887;SDS011;4480;52.370;9.748;2022-12-19T02:50:35;17.60;;;12.43;;
8887;SDS011;4480;52.370;9.748;2022-12-19T02:53:03;19.70;;;13.00;;
8887;SDS011;4480;52.370;9.748;2022-12-19T02:55:30;16.25;;;12.60;;
8887;SDS011;4480;52.370;9.748;2022-12-19T03:01:05;17.30;;;11.70;;
8887;SDS011;4480;52.370;9.748;2022-12-19T03:03:42;17.17;;;12.40;;
8887;SDS011;4480;52.370;9.748;2022-12-19T03:06:17;20.10;;;12.60;;
8887;SDS011;4480;52.370;9.748;2022-12-19T03:08:51;19.00;;;12.73;;
8887;SDS011;4480;52.370;9.748;2022-12-19T03:11:23;17.90;;;12.20;;
8887;SDS011;4480;52.370;9.748;2022-12-19T03:13:55;16.42;;;11.75;;
8887;SDS011;4480;52.370;9.748;2022-12-19T03:16:25;17.40;;;12.18;;
8887;SDS011;4480;52.370;9.748;2022-12-19T03:18:54;15.80;;;11.15;;
8887;SDS011;4480;52.370;9.748;2022-12-19T03:21:22;17.00;;;12.30;;
8887;SDS011;4480;52.370;9.748;2022-12-19T03:23:57;16.77;;;11.30;;
8887;SDS011;4480;52.370;9.748;2022-12-19T03:26:26;16.23;;;11.80;;
8887;SDS011;4480;52.370;9.748;2022-12-19T03:28:56;17.23;;;11.88;;
8887;SDS011;4480;52.370;9.748;2022-12-19T03:31:27;19.85;;;12.30;;
8887;SDS011;4480;52.370;9.748;2022-12-19T03:33:58;16.00;;;12.02;;
8887;SDS011;4480;52.370;9.748;2022-12-19T03:36:28;19.17;;;12.18;;
8887;SDS011;4480;52.370;9.748;2022-12-19T03:38:57;19.75;;;13.00;;
8887;SDS011;4480;52.370;9.748;2022-12-19T03:41:28;18.10;;;12.95;;
8887;SDS011;4480;52.370;9.748;2022-12-19T03:44:14;18.60;;;12.30;;
8887;SDS011;4480;52.370;9.748;2022-12-19T03:46:43;21.00;;;12.40;;
8887;SDS011;4480;52.370;9.748;2022-12-19T03:49:17;20.67;;;12.80;;
8887;SDS011;4480;52.370;9.748;2022-12-19T03:51:45;19.60;;;13.98;;
8887;SDS011;4480;52.370;9.748;2022-12-19T03:54:18;18.30;;;12.60;;
8887;SDS011;4480;52.370;9.748;2022-12-19T03:56:49;19.83;;;14.23;;
8887;SDS011;4480;52.370;9.748;2022-12-19T03:59:24;17.63;;;12.20;;
8887;SDS011;4480;52.370;9.748;2022-12-19T04:01:59;19.50;;;13.13;;
8887;SDS011;4480;52.370;9.748;2022-12-19T04:04:29;17.27;;;12.30;;
8887;SDS011;4480;52.370;9.748;2022-12-19T04:06:59;17.63;;;12.77;;
8887;SDS011;4480;52.370;9.748;2022-12-19T04:10:47;17.55;;;12.70;;
8887;SDS011;4480;52.370;9.748;2022-12-19T04:13:16;19.00;;;13.27;;
8887;SDS011;4480;52.370;9.748;2022-12-19T04:15:47;19.10;;;13.52;;
8887;SDS011;4480;52.370;9.748;2022-12-19T04:18:18;20.02;;;13.27;;
8887;SDS011;4480;52.370;9.748;2022-12-19T04:20:48;21.42;;;13.40;;
8887;SDS011;4480;52.370;9.748;2022-12-19T04:23:21;19.42;;;13.15;;
8887;SDS011;4480;52.370;9.748;2022-12-19T04:25:54;19.60;;;13.27;;
8887;SDS011;4480;52.370;9.748;2022-12-19T04:28:26;18.00;;;12.87;;
8887;SDS011;4480;52.370;9.748;2022-12-19T04:30:59;20.15;;;13.95;;
8887;SDS011;4480;52.370;9.748;2022-12-19T04:33:27;21.48;;;13.90;;
8887;SDS011;4480;52.370;9.748;2022-12-19T04:35:54;21.42;;;14.50;;
8887;SDS011;4480;52.370;9.748;2022-12-19T04:38:21;21.08;;;13.88;;
8887;SDS011;4480;52.370;9.748;2022-12-19T04:40:48;19.73;;;13.85;;
8887;SDS011;4480;52.370;9.748;2022-12-19T04:43:16;20.15;;;13.13;;
8887;SDS011;4480;52.370;9.748;2022-12-19T04:45:43;19.08;;;13.60;;
8887;SDS011;4480;52.370;9.748;2022-12-19T04:48:09;19.58;;;13.95;;
8887;SDS011;4480;52.370;9.748;2022-12-19T04:50:36;18.27;;;12.80;;
8887;SDS011;4480;52.370;9.748;2022-12-19T04:53:03;21.13;;;13.75;;
8887;SDS011;4480;52.370;9.748;2022-12-19T04:55:30;18.10;;;13.13;;
8887;SDS011;4480;52.370;9.748;2022-12-19T04:57:57;19.00;;;13.33;;
8887;SDS011;4480;52.370;9.748;2022-12-19T05:00:25;19.23;;;13.20;;
8887;SDS011;4480;52.370;9.748;2022-12-19T05:02:52;19.73;;;13.20;;
8887;SDS011;4480;52.370;9.748;2022-12-19T05:05:19;20.38;;;12.95;;
8887;SDS011;4480;52.370;9.748;2022-12-19T05:07:46;21.45;;;14.10;;
8887;SDS011;4480;52.370;9.748;2022-12-19T05:10:12;21.75;;;14.30;;
8887;SDS011;4480;52.370;9.748;2022-12-19T05:12:39;21.55;;;13.80;;
8887;SDS011;4480;52.370;9.748;2022-12-19T05:15:06;19.85;;;13.27;;
8887;SDS011;4480;52.370;9.748;2022-12-19T05:17:35;19.80;;;12.80;;
8887;SDS011;4480;52.370;9.748;2022-12-19T05:20:02;19.50;;;13.90;;
8887;SDS011;4480;52.370;9.748;2022-12-19T05:22:30;19.92;;;13.10;;
8887;SDS011;4480;52.370;9.748;2022-12-19T05:24:56;18.65;;;12.63;;
8887;SDS011;4480;52.370;9.748;2022-12-19T05:27:23;21.88;;;13.77;;
8887;SDS011;4480;52.370;9.748;2022-12-19T05:29:50;21.48;;;13.93;;
8887;SDS011;4480;52.370;9.748;2022-12-19T05:32:16;19.95;;;14.23;;
8887;SDS011;4480;52.370;9.748;2022-12-19T05:34:45;19.30;;;13.52;;
8887;SDS011;4480;52.370;9.748;2022-12-19T05:37:11;17.60;;;12.57;;
8887;SDS011;4480;52.370;9.748;2022-12-19T05:39:38;18.58;;;13.00;;
8887;SDS011;4480;52.370;9.748;2022-12-19T05:42:05;21.17;;;13.77;;
8887;SDS011;4480;52.370;9.748;2022-12-19T05:44:31;20.88;;;14.60;;
8887;SDS011;4480;52.370;9.748;2022-12-19T05:46:58;22.48;;;14.20;;
8887;SDS011;4480;52.370;9.748;2022-12-19T05:49:25;19.15;;;13.40;;
8887;SDS011;4480;52.370;9.748;2022-12-19T05:51:53;20.25;;;14.15;;
8887;SDS011;4480;52.370;9.748;2022-12-19T05:54:20;23.15;;;14.75;;
8887;SDS011;4480;52.370;9.748;2022-12-19T05:56:46;20.52;;;13.98;;
8887;SDS011;4480;52.370;9.748;2022-12-19T05:59:13;21.77;;;13.63;;
8887;SDS011;4480;52.370;9.748;2022-12-19T06:01:40;20.52;;;12.27;;
8887;SDS011;4480;52.370;9.748;2022-12-19T06:04:07;15.65;;;10.93;;
8887;SDS011;4480;52.370;9.748;2022-12-19T06:06:34;21.38;;;12.48;;
8887;SDS011;4480;52.370;9.748;2022-12-19T06:09:02;18.75;;;12.05;;
8887;SDS011;4480;52.370;9.748;2022-12-19T06:11:29;17.88;;;11.13;;
8887;SDS011;4480;52.370;9.748;2022-12-19T06:13:56;19.58;;;12.25;;
8887;SDS011;4480;52.370;9.748;2022-12-19T06:16:23;17.30;;;10.52;;
8887;SDS011;4480;52.370;9.748;2022-12-19T06:18:50;18.52;;;11.60;;
8887;SDS011;4480;52.370;9.748;2022-12-19T06:21:17;18.33;;;12.30;;
8887;SDS011;4480;52.370;9.748;2022-12-19T06:23:45;21.80;;;13.43;;
8887;SDS011;4480;52.370;9.748;2022-12-19T06:26:14;20.25;;;12.80;;
8887;SDS011;4480;52.370;9.748;2022-12-19T06:28:43;21.83;;;13.57;;
8887;SDS011;4480;52.370;9.748;2022-12-19T06:31:09;23.83;;;13.70;;
8887;SDS011;4480;52.370;9.748;2022-12-19T06:33:37;20.50;;;13.40;;
8887;SDS011;4480;52.370;9.748;2022-12-19T06:36:05;23.65;;;13.98;;
8887;SDS011;4480;52.370;9.748;2022-12-19T06:38:33;20.88;;;12.23;;
8887;SDS011;4480;52.370;9.748;2022-12-19T06:41:01;24.33;;;13.38;;
8887;SDS011;4480;52.370;9.748;2022-12-19T06:43:47;19.35;;;13.60;;
8887;SDS011;4480;52.370;9.748;2022-12-19T06:46:15;21.70;;;12.50;;
8887;SDS011;4480;52.370;9.748;2022-12-19T06:48:41;19.35;;;12.73;;
8887;SDS011;4480;52.370;9.748;2022-12-19T06:51:08;18.77;;;11.43;;
8887;SDS011;4480;52.370;9.748;2022-12-19T06:53:35;19.90;;;13.00;;
8887;SDS011;4480;52.370;9.748;2022-12-19T06:56:02;20.05;;;12.23;;
8887;SDS011;4480;52.370;9.748;2022-12-19T06:58:29;22.25;;;12.60;;
8887;SDS011;4480;52.370;9.748;2022-12-19T07:00:57;19.45;;;12.63;;
8887;SDS011;4480;52.370;9.748;2022-12-19T07:03:24;23.80;;;13.88;;
8887;SDS011;4480;52.370;9.748;2022-12-19T07:05:55;17.65;;;12.43;;
8887;SDS011;4480;52.370;9.748;2022-12-19T07:08:22;24.05;;;12.85;;
8887;SDS011;4480;52.370;9.748;2022-12-19T07:10:48;24.75;;;14.75;;
8887;SDS011;4480;52.370;9.748;2022-12-19T07:13:16;19.98;;;12.30;;
8887;SDS011;4480;52.370;9.748;2022-12-19T07:15:43;20.05;;;12.57;;
8887;SDS011;4480;52.370;9.748;2022-12-19T07:18:11;22.10;;;12.65;;
8887;SDS011;4480;52.370;9.748;2022-12-19T07:20:38;20.75;;;13.25;;
8887;SDS011;4480;52.370;9.748;2022-12-19T07:23:06;22.90;;;12.57;;
8887;SDS011;4480;52.370;9.748;2022-12-19T07:25:35;20.17;;;13.02;;
8887;SDS011;4480;52.370;9.748;2022-12-19T07:28:03;19.77;;;12.90;;
8887;SDS011;4480;52.370;9.748;2022-12-19T07:30:30;19.05;;;12.60;;
8887;SDS011;4480;52.370;9.748;2022-12-19T07:32:57;23.75;;;14.07;;
8887;SDS011;4480;52.370;9.748;2022-12-19T07:35:25;25.20;;;14.23;;
8887;SDS011;4480;52.370;9.748;2022-12-19T07:37:52;24.13;;;14.38;;
8887;SDS011;4480;52.370;9.748;2022-12-19T07:40:18;24.50;;;13.45;;
8887;SDS011;4480;52.370;9.748;2022-12-19T07:42:46;23.65;;;14.75;;
8887;SDS011;4480;52.370;9.748;2022-12-19T07:45:13;24.23;;;14.00;;
8887;SDS011;4480;52.370;9.748;2022-12-19T07:47:40;24.77;;;14.38;;
8887;SDS011;4480;52.370;9.748;2022-12-19T07:50:07;22.98;;;14.18;;
8887;SDS011;4480;52.370;9.748;2022-12-19T07:52:35;22.48;;;13.65;;
8887;SDS011;4480;52.370;9.748;2022-12-19T07:55:02;23.33;;;14.10;;
8887;SDS011;4480;52.370;9.748;2022-12-19T07:57:29;21.63;;;12.32;;
8887;SDS011;4480;52.370;9.748;2022-12-19T07:59:55;21.83;;;13.77;;
8887;SDS011;4480;52.370;9.748;2022-12-19T08:02:22;25.17;;;13.60;;
8887;SDS011;4480;52.370;9.748;2022-12-19T08:04:49;24.02;;;14.18;;
8887;SDS011;4480;52.370;9.748;2022-12-19T08:07:16;23.27;;;13.55;;
8887;SDS011;4480;52.370;9.748;2022-12-19T08:09:44;23.00;;;14.20;;
8887;SDS011;4480;52.370;9.748;2022-12-19T08:12:10;24.45;;;14.55;;
8887;SDS011;4480;52.370;9.748;2022-12-19T08:14:37;21.20;;;14.30;;
8887;SDS011;4480;52.370;9.748;2022-12-19T08:17:04;22.38;;;14.35;;
8887;SDS011;4480;52.370;9.748;2022-12-19T08:19:30;26.65;;;17.52;;
8887;SDS011;4480;52.370;9.748;2022-12-19T08:21:57;26.88;;;15.27;;
8887;SDS011;4480;52.370;9.748;2022-12-19T08:24:24;25.27;;;15.15;;
8887;SDS011;4480;52.370;9.748;2022-12-19T08:26:52;21.63;;;14.63;;
8887;SDS011;4480;52.370;9.748;2022-12-19T08:29:19;25.17;;;15.05;;
8887;SDS011;4480;52.370;9.748;2022-12-19T08:31:46;28.35;;;15.60;;
8887;SDS011;4480;52.370;9.748;2022-12-19T08:34:12;25.35;;;15.57;;
8887;SDS011;4480;52.370;9.748;2022-12-19T08:36:39;24.65;;;15.90;;
8887;SDS011;4480;52.370;9.748;2022-12-19T08:39:06;26.58;;;16.10;;
8887;SDS011;4480;52.370;9.748;2022-12-19T08:41:33;21.20;;;13.70;;
8887;SDS011;4480;52.370;9.748;2022-12-19T08:44:02;24.42;;;13.75;;
8887;SDS011;4480;52.370;9.748;2022-12-19T08:46:28;26.08;;;15.75;;
8887;SDS011;4480;52.370;9.748;2022-12-19T08:48:55;21.38;;;13.68;;
8887;SDS011;4480;52.370;9.748;2022-12-19T08:51:22;24.65;;;15.00;;
8887;SDS011;4480;52.370;9.748;2022-12-19T08:53:49;22.05;;;13.57;;
8887;SDS011;4480;52.370;9.748;2022-12-19T08:56:17;24.63;;;15.13;;
8887;SDS011;4480;52.370;9.748;2022-12-19T08:58:45;21.50;;;15.18;;
8887;SDS011;4480;52.370;9.748;2022-12-19T09:01:13;19.15;;;12.73;;
8887;SDS011;4480;52.370;9.748;2022-12-19T09:03:43;26.48;;;15.18;;
8887;SDS011;4480;52.370;9.748;2022-12-19T09:06:11;23.10;;;14.85;;
8887;SDS011;4480;52.370;9.748;2022-12-19T09:08:40;21.55;;;14.60;;
8887;SDS011;4480;52.370;9.748;2022-12-19T09:11:07;19.60;;;13.60;;
8887;SDS011;4480;52.370;9.748;2022-12-19T09:13:35;21.92;;;14.48;;
8887;SDS011;4480;52.370;9.748;2022-12-19T09:16:10;21.02;;;13.82;;
8887;SDS011;4480;52.370;9.748;2022-12-19T09:18:41;22.60;;;14.45;;
8887;SDS011;4480;52.370;9.748;2022-12-19T09:21:08;20.75;;;13.15;;
8887;SDS011;4480;52.370;9.748;2022-12-19T09:23:35;21.73;;;15.00;;
8887;SDS011;4480;52.370;9.748;2022-12-19T09:26:03;20.40;;;13.00;;
8887;SDS011;4480;52.370;9.748;2022-12-19T09:28:31;23.92;;;13.85;;
8887;SDS011;4480;52.370;9.748;2022-12-19T09:30:59;19.55;;;13.32;;
8887;SDS011;4480;52.370;9.748;2022-12-19T09:33:28;18.15;;;12.90;;
8887;SDS011;4480;52.370;9.748;2022-12-19T09:35:58;20.92;;;12.95;;
8887;SDS011;4480;52.370;9.748;2022-12-19T09:38:25;20.60;;;13.38;;
8887;SDS011;4480;52.370;9.748;2022-12-19T09:41:05;17.73;;;11.55;;
8887;SDS011;4480;52.370;9.748;2022-12-19T09:43:50;19.88;;;12.85;;
8887;SDS011;4480;52.370;9.748;2022-12-19T09:46:26;14.95;;;11.80;;
8887;SDS011;4480;52.370;9.748;2022-12-19T09:48:58;17.73;;;11.55;;
8887;SDS011;4480;52.370;9.748;2022-12-19T09:51:31;20.27;;;13.05;;
8887;SDS011;4480;52.370;9.748;2022-12-19T09:54:03;18.00;;;12.38;;
8887;SDS011;4480;52.370;9.748;2022-12-19T09:56:36;19.02;;;10.80;;
8887;SDS011;4480;52.370;9.748;2022-12-19T09:59:07;18.45;;;12.75;;
8887;SDS011;4480;52.370;9.748;2022-12-19T10:01:43;13.85;;;11.00;;
8887;SDS011;4480;52.370;9.748;2022-12-19T10:04:15;15.70;;;11.98;;
8887;SDS011;4480;52.370;9.748;2022-12-19T10:06:45;15.02;;;10.48;;
8887;SDS011;4480;52.370;9.748;2022-12-19T10:09:14;18.40;;;11.45;;
8887;SDS011;4480;52.370;9.748;2022-12-19T10:11:47;12.90;;;10.93;;
8887;SDS011;4480;52.370;9.748;2022-12-19T10:14:21;14.77;;;10.60;;
8887;SDS011;4480;52.370;9.748;2022-12-19T10:16:59;17.38;;;11.48;;
8887;SDS011;4480;52.370;9.748;2022-12-19T10:19:36;17.80;;;11.95;;
8887;SDS011;4480;52.370;9.748;2022-12-19T10:22:10;14.55;;;10.23;;
8887;SDS011;4480;52.370;9.748;2022-12-19T10:24:51;15.20;;;10.65;;
8887;SDS011;4480;52.370;9.748;2022-12-19T10:27:30;19.13;;;11.15;;
8887;SDS011;4480;52.370;9.748;2022-12-19T10:30:06;14.48;;;10.07;;
8887;SDS011;4480;52.370;9.748;2022-12-19T10:32:39;17.40;;;11.52;;
8887;SDS011;4480;52.370;9.748;2022-12-19T10:35:15;19.52;;;12.75;;
8887;SDS011;4480;52.370;9.748;2022-12-19T10:37:46;16.02;;;10.13;;
8887;SDS011;4480;52.370;9.748;2022-12-19T10:40:19;15.90;;;11.52;;
8887;SDS011;4480;52.370;9.748;2022-12-19T10:42:52;16.17;;;11.70;;
8887;SDS011;4480;52.370;9.748;2022-12-19T10:45:23;16.77;;;12.32;;
8887;SDS011;4480;52.370;9.748;2022-12-19T10:47:58;20.48;;;14.45;;
8887;SDS011;4480;52.370;9.748;2022-12-19T10:50:26;15.75;;;11.35;;
8887;SDS011;4480;52.370;9.748;2022-12-19T10:53:05;19.55;;;12.90;;
8887;SDS011;4480;52.370;9.748;2022-12-19T10:55:35;18.17;;;11.85;;
8887;SDS011;4480;52.370;9.748;2022-12-19T10:58:18;19.33;;;13.85;;
8887;SDS011;4480;52.370;9.748;2022-12-19T11:01:03;18.23;;;13.52;;
8887;SDS011;4480;52.370;9.748;2022-12-19T11:03:35;16.42;;;13.32;;
8887;SDS011;4480;52.370;9.748;2022-12-19T11:06:03;18.35;;;12.63;;
8887;SDS011;4480;52.370;9.748;2022-12-19T11:08:34;16.33;;;12.57;;
8887;SDS011;4480;52.370;9.748;2022-12-19T11:11:09;19.17;;;12.40;;
8887;SDS011;4480;52.370;9.748;2022-12-19T11:13:39;18.88;;;14.80;;
8887;SDS011;4480;52.370;9.748;2022-12-19T11:16:08;20.23;;;13.75;;
8887;SDS011;4480;52.370;9.748;2022-12-19T11:18:35;21.13;;;13.77;;
